createdAt,value
2022-10-30T00:00:35.551Z,65.07
2022-10-30T00:03:02.549Z,65.80
2022-10-30T00:05:28.228Z,65.75
2022-10-30T00:07:54.592Z,65.57
2022-10-30T00:10:20.906Z,64.79
2022-10-30T00:12:47.217Z,65.01
2022-10-30T00:15:13.567Z,65.21
2022-10-30T00:17:39.884Z,65.78
2022-10-30T00:20:06.208Z,65.45
2022-10-30T00:22:32.533Z,66.16
2022-10-30T00:24:58.881Z,66.09
2022-10-30T00:27:25.217Z,66.38
2022-10-30T00:29:51.586Z,66.69
2022-10-30T00:32:17.904Z,66.99
2022-10-30T00:34:44.230Z,67.31
2022-10-30T00:37:10.576Z,67.89
2022-10-30T00:39:36.942Z,67.84
2022-10-30T00:42:03.261Z,67.81
2022-10-30T00:44:29.604Z,68.21
2022-10-30T00:46:55.931Z,72.82
2022-10-30T00:49:22.254Z,71.71
2022-10-30T00:51:48.573Z,67.54
2022-10-30T00:54:14.894Z,67.25
2022-10-30T00:56:41.237Z,67.85
2022-10-30T00:59:07.559Z,68.01
2022-10-30T01:01:33.989Z,68.53
2022-10-30T01:04:00.243Z,68.59
2022-10-30T01:06:26.684Z,68.74
2022-10-30T01:08:57.059Z,68.22
2022-10-30T01:11:19.254Z,67.75
2022-10-30T01:13:45.571Z,67.89
2022-10-30T01:16:11.924Z,67.58
2022-10-30T01:18:38.241Z,67.26
2022-10-30T01:21:04.560Z,66.80
2022-10-30T01:23:30.918Z,66.94
2022-10-30T01:25:57.233Z,67.06
2022-10-30T01:28:23.564Z,66.79
2022-10-30T01:30:49.912Z,66.72
2022-10-30T01:33:16.243Z,67.06
2022-10-30T01:35:42.566Z,67.28
2022-10-30T01:38:08.912Z,67.31
2022-10-30T01:40:35.236Z,66.94
2022-10-30T01:43:01.562Z,66.44
2022-10-30T01:45:27.945Z,66.71
2022-10-30T01:47:54.264Z,66.65
2022-10-30T01:50:20.602Z,67.11
2022-10-30T01:52:46.989Z,67.81
2022-10-30T01:55:13.321Z,67.76
2022-10-30T01:57:39.665Z,67.73
2022-10-30T02:00:05.990Z,67.54
2022-10-30T02:02:32.413Z,67.79
2022-10-30T02:04:58.687Z,67.72
2022-10-30T02:07:25.028Z,70.73
2022-10-30T02:09:51.397Z,72.28
2022-10-30T02:12:17.722Z,68.40
2022-10-30T02:14:44.060Z,66.93
2022-10-30T02:17:10.382Z,66.32
2022-10-30T02:19:36.746Z,66.48
2022-10-30T02:22:03.164Z,67.12
2022-10-30T02:24:29.420Z,68.04
2022-10-30T02:26:55.759Z,68.23
2022-10-30T02:29:22.070Z,68.27
2022-10-30T02:31:48.394Z,67.99
2022-10-30T02:34:14.739Z,68.29
2022-10-30T02:36:41.102Z,68.17
2022-10-30T02:39:07.416Z,68.27
2022-10-30T02:41:33.748Z,68.36
2022-10-30T02:44:00.069Z,68.48
2022-10-30T02:46:26.395Z,68.02
2022-10-30T02:48:52.733Z,68.18
2022-10-30T02:51:19.100Z,67.94
2022-10-30T02:53:45.384Z,68.27
2022-10-30T02:56:11.739Z,68.06
2022-10-30T02:58:38.082Z,67.77
2022-10-30T03:01:04.442Z,67.64
2022-10-30T03:03:30.749Z,68.00
2022-10-30T03:05:57.096Z,69.01
2022-10-30T03:08:23.418Z,69.39
2022-10-30T03:10:49.763Z,69.59
2022-10-30T03:13:16.101Z,69.67
2022-10-30T03:15:42.473Z,69.25
2022-10-30T03:18:08.815Z,69.07
2022-10-30T03:20:35.164Z,69.75
2022-10-30T03:23:01.511Z,69.85
2022-10-30T03:25:27.828Z,69.96
2022-10-30T03:27:54.177Z,70.04
2022-10-30T03:30:20.520Z,69.57
2022-10-30T03:32:46.848Z,69.46
2022-10-30T03:35:13.171Z,68.94
2022-10-30T03:37:39.514Z,68.61
2022-10-30T03:40:05.863Z,68.54
2022-10-30T03:42:32.201Z,68.69
2022-10-30T03:44:58.539Z,69.08
2022-10-30T03:47:24.860Z,69.10
2022-10-30T03:49:51.192Z,68.96
2022-10-30T03:52:17.517Z,69.34
2022-10-30T03:54:43.871Z,69.21
2022-10-30T03:57:10.211Z,69.16
2022-10-30T03:59:36.558Z,69.31
2022-10-30T04:02:03.045Z,69.26
2022-10-30T04:04:29.254Z,69.50
2022-10-30T04:06:55.587Z,69.22
2022-10-30T04:09:21.896Z,69.68
2022-10-30T04:11:48.242Z,70.32
2022-10-30T04:14:14.584Z,70.54
2022-10-30T04:16:40.920Z,70.87
2022-10-30T04:19:07.242Z,71.23
2022-10-30T04:21:33.580Z,70.83
2022-10-30T04:23:59.927Z,70.91
2022-10-30T04:26:26.259Z,71.12
2022-10-30T04:28:52.610Z,70.85
2022-10-30T04:31:18.963Z,70.17
2022-10-30T04:33:45.271Z,70.28
2022-10-30T04:36:11.592Z,70.78
2022-10-30T04:38:37.944Z,71.32
2022-10-30T04:43:30.407Z,70.87
2022-10-30T04:45:56.744Z,70.71
2022-10-30T04:48:23.087Z,71.28
2022-10-30T04:50:49.401Z,71.48
2022-10-30T04:53:15.726Z,71.06
2022-10-30T04:55:42.070Z,71.09
2022-10-30T04:58:08.413Z,71.23
2022-10-30T05:00:34.753Z,71.43
2022-10-30T05:03:01.115Z,71.64
2022-10-30T05:05:27.435Z,72.01
2022-10-30T05:07:53.769Z,72.28
2022-10-30T05:10:20.137Z,72.01
2022-10-30T05:12:46.478Z,71.35
2022-10-30T05:15:12.813Z,70.42
2022-10-30T05:17:39.163Z,69.79
2022-10-30T05:20:05.504Z,69.13
2022-10-30T05:22:31.843Z,68.60
2022-10-30T05:24:58.202Z,68.35
2022-10-30T05:27:24.547Z,67.31
2022-10-30T05:29:50.870Z,66.25
2022-10-30T05:32:17.256Z,65.47
2022-10-30T05:34:43.568Z,65.49
2022-10-30T05:37:09.918Z,64.45
2022-10-30T05:39:36.277Z,64.50
2022-10-30T05:42:02.616Z,64.84
2022-10-30T05:44:54.782Z,65.25
2022-10-30T05:49:21.620Z,63.87
2022-10-30T05:51:47.946Z,63.05
2022-10-30T05:54:14.290Z,63.12
2022-10-30T05:56:40.637Z,62.19
2022-10-30T05:59:10.820Z,61.12
2022-10-30T06:01:37.243Z,60.36
2022-10-30T06:04:03.524Z,60.33
2022-10-30T06:06:29.868Z,59.83
2022-10-30T06:08:56.224Z,59.24
2022-10-30T06:11:22.580Z,59.63
2022-10-30T06:13:48.928Z,58.97
2022-10-30T06:16:15.273Z,59.32
2022-10-30T06:18:41.584Z,58.68
2022-10-30T06:21:08.369Z,57.69
2022-10-30T06:23:34.692Z,56.24
2022-10-30T06:26:01.054Z,55.12
2022-10-30T06:28:27.384Z,54.79
2022-10-30T06:30:53.716Z,56.15
2022-10-30T06:33:20.393Z,55.41
2022-10-30T06:35:46.738Z,55.77
2022-10-30T06:38:13.072Z,55.51
2022-10-30T06:40:39.424Z,55.18
2022-10-30T06:43:05.793Z,54.43
2022-10-30T06:45:32.128Z,54.28
2022-10-30T06:47:58.727Z,54.94
2022-10-30T06:50:24.827Z,54.62
2022-10-30T06:52:51.165Z,52.66
2022-10-30T06:55:17.505Z,50.89
2022-10-30T06:57:43.843Z,50.47
2022-10-30T07:00:10.204Z,50.88
2022-10-30T07:02:36.569Z,51.54
2022-10-30T07:05:02.958Z,50.69
2022-10-30T07:07:29.322Z,50.77
2022-10-30T07:09:55.700Z,49.65
2022-10-30T07:12:22.098Z,48.65
2022-10-30T07:14:48.495Z,48.34
2022-10-30T07:17:14.962Z,48.08
2022-10-30T07:19:41.293Z,48.08
2022-10-30T07:22:07.704Z,48.15
2022-10-30T07:24:34.025Z,48.64
2022-10-30T07:27:00.616Z,47.58
2022-10-30T07:29:26.975Z,47.32
2022-10-30T07:32:06.550Z,47.24
2022-10-30T07:34:19.697Z,46.13
2022-10-30T07:36:46.018Z,46.19
2022-10-30T07:39:12.410Z,45.89
2022-10-30T07:41:38.729Z,45.97
2022-10-30T07:44:05.058Z,46.17
2022-10-30T07:46:31.411Z,45.76
2022-10-30T07:48:57.732Z,45.89
2022-10-30T07:51:24.160Z,46.08
2022-10-30T07:53:50.472Z,45.45
2022-10-30T07:56:16.819Z,45.69
2022-10-30T07:58:45.678Z,44.90
2022-10-30T08:01:09.585Z,45.04
2022-10-30T08:03:35.795Z,44.25
2022-10-30T08:06:02.245Z,44.87
2022-10-30T08:08:28.499Z,44.65
2022-10-30T08:10:54.836Z,44.46
2022-10-30T08:13:21.222Z,44.84
2022-10-30T08:15:47.571Z,44.53
2022-10-30T08:18:13.908Z,44.36
2022-10-30T08:20:40.310Z,45.30
2022-10-30T08:23:06.576Z,45.91
2022-10-30T08:25:32.892Z,46.27
2022-10-30T08:27:59.244Z,44.86
2022-10-30T08:30:25.584Z,44.21
2022-10-30T08:32:51.946Z,44.10
2022-10-30T08:35:20.068Z,44.06
2022-10-30T08:37:44.642Z,44.00
2022-10-30T08:40:10.982Z,42.57
2022-10-30T08:42:37.336Z,42.27
2022-10-30T08:45:03.668Z,42.43
2022-10-30T08:47:30.035Z,42.25
2022-10-30T08:49:56.366Z,41.65
2022-10-30T08:52:22.692Z,43.02
2022-10-30T08:54:49.027Z,42.95
2022-10-30T08:57:15.343Z,42.85
2022-10-30T08:59:41.740Z,43.02
2022-10-30T09:02:08.159Z,41.82
2022-10-30T09:04:34.394Z,41.51
2022-10-30T09:07:00.738Z,41.07
2022-10-30T09:09:27.076Z,41.66
2022-10-30T09:11:53.415Z,40.75
2022-10-30T09:14:19.774Z,40.57
2022-10-30T09:16:46.101Z,39.92
2022-10-30T09:19:17.675Z,40.38
2022-10-30T09:21:38.771Z,40.12
2022-10-30T09:24:05.127Z,39.35
2022-10-30T09:26:31.448Z,39.84
2022-10-30T09:28:57.801Z,39.93
2022-10-30T09:31:24.152Z,40.36
2022-10-30T09:33:50.503Z,40.34
2022-10-30T09:36:19.657Z,40.52
2022-10-30T09:38:43.173Z,39.47
2022-10-30T09:41:09.539Z,38.30
2022-10-30T09:43:35.889Z,38.20
2022-10-30T09:46:02.219Z,38.63
2022-10-30T09:48:28.546Z,37.75
2022-10-30T09:50:54.866Z,37.57
2022-10-30T09:53:21.197Z,36.90
2022-10-30T09:55:47.544Z,36.73
2022-10-30T09:58:13.908Z,37.33
2022-10-30T10:00:40.234Z,36.80
2022-10-30T10:03:06.549Z,36.71
2022-10-30T10:05:32.927Z,36.10
2022-10-30T10:07:59.749Z,36.34
2022-10-30T10:10:25.617Z,35.68
2022-10-30T10:12:53.869Z,35.12
2022-10-30T10:15:18.263Z,35.53
2022-10-30T10:17:44.613Z,35.56
2022-10-30T10:20:10.968Z,34.82
2022-10-30T10:22:37.318Z,35.01
2022-10-30T10:25:03.656Z,34.71
2022-10-30T10:27:30.001Z,34.58
2022-10-30T10:29:56.368Z,35.09
2022-10-30T10:32:22.690Z,35.24
2022-10-30T10:34:49.032Z,35.34
2022-10-30T10:37:15.383Z,34.66
2022-10-30T10:39:41.724Z,33.93
2022-10-30T10:42:08.045Z,34.06
2022-10-30T10:44:34.391Z,33.67
2022-10-30T10:47:06.010Z,33.90
2022-10-30T10:49:27.072Z,33.45
2022-10-30T10:51:53.389Z,32.68
2022-10-30T10:54:19.807Z,33.30
2022-10-30T10:56:46.523Z,33.39
2022-10-30T10:59:12.839Z,33.48
2022-10-30T11:01:39.269Z,33.20
2022-10-30T11:04:05.527Z,32.34
2022-10-30T11:06:31.865Z,31.98
2022-10-30T11:08:58.215Z,32.13
2022-10-30T11:11:24.561Z,32.13
2022-10-30T11:13:50.894Z,32.40
2022-10-30T11:16:17.244Z,31.98
2022-10-30T11:18:43.586Z,32.07
2022-10-30T11:21:09.918Z,32.25
2022-10-30T11:23:36.255Z,31.86
2022-10-30T11:26:02.599Z,31.36
2022-10-30T11:28:28.936Z,31.17
2022-10-30T11:30:55.264Z,31.01
2022-10-30T11:33:21.584Z,30.66
2022-10-30T11:35:47.909Z,30.54
2022-10-30T11:38:14.238Z,30.95
2022-10-30T11:40:40.576Z,30.72
2022-10-30T11:43:06.968Z,29.83
2022-10-30T11:45:33.317Z,29.84
2022-10-30T11:48:02.524Z,29.51
2022-10-30T11:50:25.953Z,29.39
2022-10-30T11:52:52.317Z,29.66
2022-10-30T11:55:18.666Z,29.64
2022-10-30T11:57:45.003Z,29.23
2022-10-30T12:00:11.346Z,29.34
2022-10-30T12:05:04.021Z,29.64
2022-10-30T12:07:30.364Z,29.63
2022-10-30T12:09:56.709Z,29.65
2022-10-30T12:12:23.044Z,29.81
2022-10-30T12:14:49.390Z,29.18
2022-10-30T12:17:15.739Z,28.60
2022-10-30T12:19:42.061Z,28.56
2022-10-30T12:22:09.866Z,28.46
2022-10-30T12:24:34.741Z,28.64
2022-10-30T12:27:01.078Z,28.33
2022-10-30T12:29:41.708Z,27.78
2022-10-30T12:31:53.719Z,28.21
2022-10-30T12:34:20.071Z,27.65
2022-10-30T12:36:46.459Z,27.84
2022-10-30T12:39:12.784Z,28.00
2022-10-30T12:41:39.137Z,27.90
2022-10-30T12:44:05.480Z,28.11
2022-10-30T12:46:31.796Z,27.86
2022-10-30T12:48:58.143Z,27.80
2022-10-30T12:51:24.487Z,27.64
2022-10-30T12:53:50.826Z,27.48
2022-10-30T12:56:17.193Z,26.73
2022-10-30T12:58:43.528Z,26.97
2022-10-30T13:01:09.925Z,27.02
2022-10-30T13:03:36.285Z,27.09
2022-10-30T13:06:02.666Z,27.62
2022-10-30T13:08:28.989Z,28.57
2022-10-30T13:10:55.322Z,29.06
2022-10-30T13:13:21.646Z,29.17
2022-10-30T13:15:47.992Z,29.21
2022-10-30T13:18:14.323Z,29.11
2022-10-30T13:20:40.649Z,29.20
2022-10-30T13:23:06.974Z,29.26
2022-10-30T13:25:33.365Z,29.71
2022-10-30T13:27:59.691Z,29.59
2022-10-30T13:30:26.037Z,30.12
2022-10-30T13:32:52.361Z,30.27
2022-10-30T13:35:18.680Z,30.27
2022-10-30T13:37:45.052Z,30.46
2022-10-30T13:40:11.368Z,30.50
2022-10-30T13:42:37.709Z,30.39
2022-10-30T13:45:04.024Z,30.53
2022-10-30T13:47:30.369Z,30.42
2022-10-30T13:49:56.808Z,30.50
2022-10-30T13:52:23.200Z,30.67
2022-10-30T13:54:49.471Z,30.77
2022-10-30T13:57:15.802Z,31.01
2022-10-30T13:59:42.122Z,31.29
2022-10-30T14:02:08.582Z,31.63
2022-10-30T14:04:34.788Z,32.02
2022-10-30T14:07:01.132Z,32.40
2022-10-30T14:09:27.451Z,32.67
2022-10-30T14:11:53.800Z,32.84
2022-10-30T14:14:20.113Z,32.86
2022-10-30T14:16:46.441Z,33.00
2022-10-30T14:19:12.760Z,33.18
2022-10-30T14:21:39.123Z,33.51
2022-10-30T14:24:05.510Z,33.48
2022-10-30T14:26:31.829Z,33.65
2022-10-30T14:28:58.150Z,33.86
2022-10-30T14:31:24.481Z,34.15
2022-10-30T14:33:50.830Z,34.52
2022-10-30T14:36:17.200Z,34.63
2022-10-30T14:38:43.522Z,34.81
2022-10-30T14:41:12.874Z,35.16
2022-10-30T14:43:36.204Z,35.39
2022-10-30T14:46:02.519Z,35.46
2022-10-30T14:48:28.855Z,35.72
2022-10-30T14:50:55.212Z,36.06
2022-10-30T14:53:21.521Z,36.29
2022-10-30T14:55:47.899Z,36.59
2022-10-30T14:58:14.241Z,36.80
2022-10-30T15:00:40.572Z,37.05
2022-10-30T15:03:06.914Z,37.28
2022-10-30T15:05:33.302Z,37.38
2022-10-30T15:07:59.897Z,37.52
2022-10-30T15:10:25.984Z,37.64
2022-10-30T15:12:52.294Z,37.75
2022-10-30T15:15:18.643Z,37.90
2022-10-30T15:17:44.946Z,38.11
2022-10-30T15:20:11.293Z,38.17
2022-10-30T15:22:37.614Z,38.43
2022-10-30T15:25:03.945Z,38.61
2022-10-30T15:27:30.291Z,38.58
2022-10-30T15:29:56.667Z,38.70
2022-10-30T15:32:23.004Z,38.98
2022-10-30T15:34:49.332Z,39.10
2022-10-30T15:37:15.690Z,39.27
2022-10-30T15:39:42.041Z,39.64
2022-10-30T15:42:08.377Z,39.84
2022-10-30T15:44:34.762Z,39.92
2022-10-30T15:47:01.169Z,40.01
2022-10-30T15:49:27.427Z,40.04
2022-10-30T15:51:53.757Z,40.22
2022-10-30T15:54:20.081Z,40.32
2022-10-30T15:57:17.925Z,40.56
2022-10-30T15:59:12.728Z,40.63
2022-10-30T16:01:39.253Z,40.87
2022-10-30T16:04:05.404Z,40.89
2022-10-30T16:06:31.729Z,41.11
2022-10-30T16:08:58.125Z,41.09
2022-10-30T16:11:24.473Z,41.21
2022-10-30T16:13:50.823Z,41.40
2022-10-30T16:16:17.657Z,41.80
2022-10-30T16:18:44.000Z,41.92
2022-10-30T16:21:10.338Z,42.17
2022-10-30T16:23:36.688Z,42.38
2022-10-30T16:26:03.002Z,42.46
2022-10-30T16:28:29.357Z,42.53
2022-10-30T16:30:55.695Z,42.57
2022-10-30T16:33:22.047Z,42.73
2022-10-30T16:35:54.652Z,42.71
2022-10-30T16:38:14.764Z,42.93
2022-10-30T16:40:41.085Z,42.96
2022-10-30T16:43:07.420Z,42.91
2022-10-30T16:45:33.770Z,42.88
2022-10-30T16:48:04.438Z,42.90
2022-10-30T16:50:26.452Z,42.86
2022-10-30T16:52:52.774Z,42.98
2022-10-30T16:55:19.095Z,43.07
2022-10-30T16:57:45.438Z,43.06
2022-10-30T17:00:11.841Z,43.37
2022-10-30T17:02:38.261Z,43.38
2022-10-30T17:05:04.506Z,43.50
2022-10-30T17:07:30.852Z,43.47
2022-10-30T17:09:57.165Z,43.70
2022-10-30T17:12:23.511Z,43.77
2022-10-30T17:14:49.851Z,43.61
2022-10-30T17:17:16.174Z,43.64
2022-10-30T17:19:42.550Z,43.93
2022-10-30T17:22:08.896Z,43.96
2022-10-30T17:24:35.215Z,44.04
2022-10-30T17:27:01.579Z,44.14
2022-10-30T17:29:27.895Z,44.28
2022-10-30T17:31:54.246Z,44.40
2022-10-30T17:34:20.571Z,44.44
2022-10-30T17:36:46.911Z,44.55
2022-10-30T17:39:13.266Z,44.80
2022-10-30T17:41:39.614Z,44.85
2022-10-30T17:44:06.942Z,44.95
2022-10-30T17:46:33.293Z,44.99
2022-10-30T17:48:59.666Z,45.24
2022-10-30T17:51:26.008Z,45.17
2022-10-30T17:53:52.327Z,45.30
2022-10-30T17:56:18.707Z,45.34
2022-10-30T17:58:45.038Z,45.31
2022-10-30T18:01:11.398Z,45.40
2022-10-30T18:03:37.758Z,45.55
2022-10-30T18:06:05.090Z,45.37
2022-10-30T18:08:31.425Z,45.45
2022-10-30T18:10:57.766Z,45.64
2022-10-30T18:13:24.086Z,45.76
2022-10-30T18:15:50.430Z,45.73
2022-10-30T18:18:16.774Z,45.66
2022-10-30T18:20:43.115Z,45.71
2022-10-30T18:23:12.769Z,46.03
2022-10-30T18:25:35.807Z,45.69
2022-10-30T18:28:02.151Z,45.68
2022-10-30T18:30:28.467Z,45.85
2022-10-30T18:32:54.795Z,45.83
2022-10-30T18:35:21.121Z,46.02
2022-10-30T18:37:47.475Z,46.13
2022-10-30T18:40:13.804Z,45.93
2022-10-30T18:42:40.175Z,46.01
2022-10-30T18:45:06.509Z,45.93
2022-10-30T18:47:32.848Z,46.11
2022-10-30T18:49:59.211Z,46.24
2022-10-30T18:52:25.552Z,46.08
2022-10-30T18:54:51.892Z,45.97
2022-10-30T18:57:18.237Z,45.99
2022-10-30T18:59:44.574Z,46.09
2022-10-30T19:02:11.000Z,46.01
2022-10-30T19:04:37.252Z,46.06
2022-10-30T19:07:03.585Z,45.93
2022-10-30T19:09:29.934Z,46.03
2022-10-30T19:11:56.259Z,46.03
2022-10-30T19:14:22.579Z,46.10
2022-10-30T19:16:48.962Z,46.15
2022-10-30T19:19:15.298Z,46.16
2022-10-30T19:21:41.638Z,46.14
2022-10-30T19:24:07.991Z,46.09
2022-10-30T19:26:34.334Z,46.02
2022-10-30T19:29:00.670Z,46.06
2022-10-30T19:31:26.985Z,46.13
2022-10-30T19:33:57.074Z,46.07
2022-10-30T19:36:19.702Z,46.10
2022-10-30T19:38:46.035Z,46.16
2022-10-30T19:41:12.356Z,46.31
2022-10-30T19:43:38.681Z,46.44
2022-10-30T19:46:05.043Z,46.62
2022-10-30T19:49:01.282Z,46.74
2022-10-30T19:50:57.726Z,46.78
2022-10-30T19:53:24.085Z,46.64
2022-10-30T19:55:50.434Z,46.61
2022-10-30T19:58:18.038Z,46.58
2022-10-30T20:00:43.124Z,46.49
2022-10-30T20:03:09.445Z,46.21
2022-10-30T20:05:35.755Z,46.06
2022-10-30T20:08:02.383Z,46.13
2022-10-30T20:10:28.452Z,46.14
2022-10-30T20:12:54.838Z,46.05
2022-10-30T20:15:21.158Z,45.99
2022-10-30T20:17:47.479Z,46.01
2022-10-30T20:20:13.820Z,46.12
2022-10-30T20:22:40.196Z,46.21
2022-10-30T20:25:06.515Z,46.33
2022-10-30T20:27:32.858Z,46.42
2022-10-30T20:29:59.202Z,46.56
2022-10-30T20:32:25.545Z,46.63
2022-10-30T20:34:51.874Z,46.72
2022-10-30T20:37:18.212Z,46.67
2022-10-30T20:39:44.569Z,46.72
2022-10-30T20:42:10.895Z,46.89
2022-10-30T20:44:37.221Z,46.91
2022-10-30T20:47:03.560Z,47.02
2022-10-30T20:49:29.907Z,47.06
2022-10-30T20:51:56.266Z,47.05
2022-10-30T20:54:22.609Z,47.07
2022-10-30T20:56:48.923Z,47.14
2022-10-30T20:59:15.275Z,47.31
2022-10-30T21:01:41.749Z,47.31
2022-10-30T21:04:07.933Z,47.26
2022-10-30T21:06:34.290Z,47.18
2022-10-30T21:09:00.642Z,47.32
2022-10-30T21:11:26.976Z,47.45
2022-10-30T21:13:53.320Z,47.48
2022-10-30T21:16:19.662Z,47.63
2022-10-30T21:18:45.998Z,47.69
2022-10-30T21:21:12.323Z,47.63
2022-10-30T21:23:38.633Z,47.11
2022-10-30T21:26:05.006Z,46.70
2022-10-30T21:28:31.343Z,46.60
2022-10-30T21:30:57.651Z,46.64
2022-10-30T21:33:24.057Z,46.94
2022-10-30T21:35:50.398Z,46.69
2022-10-30T21:38:16.719Z,46.43
2022-10-30T21:40:43.060Z,46.13
2022-10-30T21:43:09.732Z,45.77
2022-10-30T21:45:35.721Z,45.70
2022-10-30T21:48:02.064Z,45.77
2022-10-30T21:50:28.446Z,45.67
2022-10-30T21:52:54.779Z,45.58
2022-10-30T21:55:21.106Z,45.56
2022-10-30T21:57:47.476Z,45.48
2022-10-30T22:00:13.799Z,45.57
2022-10-30T22:02:40.123Z,45.61
2022-10-30T22:05:06.492Z,45.56
2022-10-30T22:07:32.811Z,45.68
2022-10-30T22:09:59.166Z,45.67
2022-10-30T22:12:25.532Z,45.87
2022-10-30T22:14:51.855Z,45.98
2022-10-30T22:17:18.205Z,46.24
2022-10-30T22:19:44.557Z,46.36
2022-10-30T22:22:10.914Z,46.60
2022-10-30T22:24:37.251Z,46.42
2022-10-30T22:27:03.584Z,46.46
2022-10-30T22:29:29.928Z,46.59
2022-10-30T22:31:56.252Z,46.78
2022-10-30T22:34:22.593Z,46.86
2022-10-30T22:36:48.961Z,46.97
2022-10-30T22:39:15.319Z,47.11
2022-10-30T22:41:41.622Z,47.18
2022-10-30T22:44:08.667Z,47.26
2022-10-30T22:46:34.324Z,47.29
2022-10-30T22:49:00.662Z,47.26
2022-10-30T22:51:27.025Z,47.41
2022-10-30T22:53:53.355Z,47.15
2022-10-30T22:56:19.704Z,47.07
2022-10-30T22:58:46.094Z,46.98
2022-10-30T23:01:12.386Z,47.04
2022-10-30T23:03:38.813Z,47.20
2022-10-30T23:06:05.090Z,47.29
2022-10-30T23:08:31.362Z,47.27
2022-10-30T23:10:57.681Z,47.17
2022-10-30T23:13:24.049Z,47.08
2022-10-30T23:15:50.359Z,47.00
2022-10-30T23:18:16.705Z,46.86
2022-10-30T23:20:43.064Z,46.82
2022-10-30T23:23:09.408Z,46.81
2022-10-30T23:25:35.728Z,46.89
2022-10-30T23:28:02.253Z,46.97
2022-10-30T23:30:28.428Z,47.08
2022-10-30T23:32:54.771Z,47.20
2022-10-30T23:35:21.130Z,47.46
2022-10-30T23:37:47.487Z,47.60
2022-10-30T23:40:13.840Z,48.00
2022-10-30T23:42:40.175Z,48.13
2022-10-30T23:45:06.538Z,48.43
2022-10-30T23:47:32.858Z,48.61
2022-10-30T23:49:59.199Z,48.53
2022-10-30T23:52:25.538Z,48.42
2022-10-30T23:54:51.924Z,48.44
2022-10-30T23:57:18.239Z,48.58
2022-10-30T23:59:44.587Z,48.58
